createdAt,value
2017-07-29T00:00:56.672Z,0
2017-07-29T00:01:56.953Z,0
2017-07-29T00:02:56.980Z,0
2017-07-29T00:03:56.964Z,0
2017-07-29T00:04:56.971Z,0
2017-07-29T00:05:56.955Z,0
2017-07-29T00:06:56.968Z,0
2017-07-29T00:07:56.961Z,0
2017-07-29T00:08:56.948Z,0
2017-07-29T00:09:56.942Z,0
2017-07-29T00:10:56.941Z,0
2017-07-29T00:11:56.895Z,0
2017-07-29T00:12:56.927Z,0
2017-07-29T00:13:56.901Z,0
2017-07-29T00:14:56.920Z,0
2017-07-29T00:15:56.910Z,0
2017-07-29T00:16:56.923Z,0
2017-07-29T00:17:56.901Z,0
2017-07-29T00:18:56.889Z,0
2017-07-29T00:19:56.888Z,0
2017-07-29T00:20:56.876Z,0
2017-07-29T00:21:56.882Z,0
2017-07-29T00:22:56.549Z,0
2017-07-29T00:23:56.559Z,0
2017-07-29T00:24:56.856Z,0
2017-07-29T00:25:56.866Z,0
2017-07-29T00:26:56.850Z,0
2017-07-29T00:27:56.856Z,0
2017-07-29T00:28:56.537Z,0
2017-07-29T00:29:56.942Z,0
2017-07-29T00:30:56.828Z,0
2017-07-29T00:31:56.824Z,0
2017-07-29T00:32:56.825Z,0
2017-07-29T00:33:56.821Z,0
2017-07-29T00:34:56.808Z,0
2017-07-29T00:35:56.820Z,0
2017-07-29T00:36:56.811Z,0
2017-07-29T00:37:56.820Z,0
2017-07-29T00:38:56.479Z,0
2017-07-29T00:39:56.781Z,0
2017-07-29T00:40:56.795Z,0
2017-07-29T00:41:56.792Z,0
2017-07-29T00:42:56.796Z,0
2017-07-29T00:43:56.444Z,0
2017-07-29T00:44:56.780Z,0
2017-07-29T00:45:56.447Z,0
2017-07-29T00:46:56.770Z,0
2017-07-29T00:47:56.758Z,0
2017-07-29T00:48:56.444Z,0
2017-07-29T00:49:56.749Z,0
2017-07-29T00:50:56.748Z,0
2017-07-29T00:51:56.423Z,0
2017-07-29T00:52:56.418Z,0
2017-07-29T00:53:56.702Z,0
2017-07-29T00:54:56.723Z,0
2017-07-29T00:55:56.707Z,0
2017-07-29T00:56:56.722Z,0
2017-07-29T00:57:56.392Z,0
2017-07-29T00:58:56.416Z,0
2017-07-29T00:59:56.688Z,0
2017-07-29T01:00:56.696Z,0
2017-07-29T01:01:56.691Z,0
2017-07-29T01:02:56.690Z,0
2017-07-29T01:03:56.359Z,0
2017-07-29T01:04:56.362Z,0
2017-07-29T01:05:56.343Z,0
2017-07-29T01:06:56.654Z,0
2017-07-29T01:07:56.650Z,0
2017-07-29T01:08:56.665Z,0
2017-07-29T01:09:56.674Z,0
2017-07-29T01:10:56.658Z,0
2017-07-29T01:11:56.347Z,0
2017-07-29T01:12:56.616Z,0
2017-07-29T01:13:56.634Z,0
2017-07-29T01:14:56.629Z,0
2017-07-29T01:15:56.641Z,0
2017-07-29T01:16:56.611Z,0
2017-07-29T01:17:56.634Z,0
2017-07-29T01:18:56.617Z,0
2017-07-29T01:19:56.608Z,0
2017-07-29T01:20:56.600Z,0
2017-07-29T01:21:56.574Z,0
2017-07-29T01:22:56.579Z,0
2017-07-29T01:23:56.592Z,0
2017-07-29T01:24:56.585Z,0
2017-07-29T01:25:56.599Z,0
2017-07-29T01:26:56.579Z,0
2017-07-29T01:27:56.573Z,0
2017-07-29T01:28:56.246Z,0
2017-07-29T01:29:56.565Z,0
2017-07-29T01:30:56.551Z,0
2017-07-29T01:31:56.566Z,0
2017-07-29T01:32:56.539Z,0
2017-07-29T01:33:56.548Z,0
2017-07-29T01:34:56.222Z,0
2017-07-29T01:35:56.214Z,0
2017-07-29T01:36:56.516Z,0
2017-07-29T01:37:56.538Z,0
2017-07-29T01:38:56.526Z,0
2017-07-29T01:39:56.529Z,0
2017-07-29T01:40:56.496Z,0
2017-07-29T01:41:56.526Z,0
2017-07-29T01:42:56.508Z,0
2017-07-29T01:43:56.509Z,0
2017-07-29T01:44:56.511Z,0
2017-07-29T01:45:56.497Z,0
2017-07-29T01:46:56.477Z,0
2017-07-29T01:47:56.184Z,0
2017-07-29T01:48:56.461Z,0
2017-07-29T01:49:56.489Z,0
2017-07-29T01:50:56.458Z,0
2017-07-29T01:51:56.452Z,0
2017-07-29T01:52:56.457Z,0
2017-07-29T01:53:56.461Z,0
2017-07-29T01:54:56.461Z,0
2017-07-29T01:55:56.451Z,0
2017-07-29T01:56:56.439Z,0
2017-07-29T01:57:56.427Z,0
2017-07-29T01:58:56.428Z,0
2017-07-29T01:59:56.432Z,0
2017-07-29T02:00:56.130Z,0
2017-07-29T02:01:56.425Z,0
2017-07-29T02:02:56.417Z,0
2017-07-29T02:03:56.413Z,0
2017-07-29T02:04:56.417Z,0
2017-07-29T02:05:56.394Z,0
2017-07-29T02:06:56.412Z,0
2017-07-29T02:07:56.075Z,0
2017-07-29T02:08:56.389Z,0
2017-07-29T02:09:56.364Z,0
2017-07-29T02:10:56.406Z,0
2017-07-29T02:11:56.388Z,0
2017-07-29T02:12:56.364Z,0
2017-07-29T02:13:56.353Z,0
2017-07-29T02:14:56.353Z,0
2017-07-29T02:15:56.365Z,0
2017-07-29T02:16:56.362Z,0
2017-07-29T02:17:56.336Z,0
2017-07-29T02:18:56.363Z,0
2017-07-29T02:19:56.339Z,0
2017-07-29T02:20:56.343Z,0
2017-07-29T02:21:56.316Z,0
2017-07-29T02:22:56.334Z,0
2017-07-29T02:23:56.334Z,0
2017-07-29T02:24:56.328Z,0
2017-07-29T02:25:56.316Z,0
2017-07-29T02:26:56.301Z,0
2017-07-29T02:27:56.310Z,0
2017-07-29T02:28:56.302Z,0
2017-07-29T02:29:56.310Z,0
2017-07-29T02:30:56.274Z,0
2017-07-29T02:31:56.306Z,0
2017-07-29T02:32:55.986Z,0
2017-07-29T02:33:56.305Z,0
2017-07-29T02:34:56.474Z,0
2017-07-29T02:35:56.280Z,0
2017-07-29T02:36:55.958Z,0
2017-07-29T02:37:56.266Z,0
2017-07-29T02:38:55.960Z,0
2017-07-29T02:39:56.277Z,0
2017-07-29T02:40:56.263Z,0
2017-07-29T02:41:56.243Z,0
2017-07-29T02:42:56.241Z,0
2017-07-29T02:43:56.260Z,4
2017-07-29T02:44:56.246Z,4
2017-07-29T02:45:56.251Z,4
2017-07-29T02:46:55.919Z,0
2017-07-29T02:47:56.224Z,4
2017-07-29T02:48:56.221Z,4
2017-07-29T02:49:56.225Z,4
2017-07-29T02:50:56.205Z,4
2017-07-29T02:51:56.225Z,4
2017-07-29T02:52:56.189Z,8
2017-07-29T02:53:56.206Z,8
2017-07-29T02:54:56.169Z,12
2017-07-29T02:55:56.184Z,12
2017-07-29T02:56:56.188Z,12
2017-07-29T02:57:56.201Z,16
2017-07-29T02:58:56.178Z,20
2017-07-29T02:59:56.164Z,20
2017-07-29T03:00:55.869Z,20
2017-07-29T03:01:55.872Z,20
2017-07-29T03:02:56.153Z,24
2017-07-29T03:03:56.147Z,24
2017-07-29T03:04:55.825Z,28
2017-07-29T03:05:56.308Z,28
2017-07-29T03:06:56.148Z,32
2017-07-29T03:07:56.158Z,32
2017-07-29T03:08:56.140Z,36
2017-07-29T03:09:55.840Z,40
2017-07-29T03:10:56.132Z,40
2017-07-29T03:11:56.133Z,48
2017-07-29T03:12:56.117Z,56
2017-07-29T03:13:56.137Z,64
2017-07-29T03:14:56.118Z,76
2017-07-29T03:15:56.109Z,92
2017-07-29T03:16:56.105Z,104
2017-07-29T03:17:56.101Z,120
2017-07-29T03:18:56.092Z,136
2017-07-29T03:19:56.106Z,148
2017-07-29T03:20:56.096Z,156
2017-07-29T03:21:56.064Z,164
2017-07-29T03:22:56.089Z,180
2017-07-29T03:23:56.077Z,192
2017-07-29T03:24:56.078Z,204
2017-07-29T03:25:55.743Z,216
2017-07-29T03:26:56.075Z,216
2017-07-29T03:27:56.072Z,216
2017-07-29T03:28:56.063Z,220
2017-07-29T03:29:56.061Z,228
2017-07-29T03:30:56.063Z,232
2017-07-29T03:31:56.029Z,240
2017-07-29T03:32:56.041Z,248
2017-07-29T03:33:56.026Z,260
2017-07-29T03:34:56.053Z,268
2017-07-29T03:35:56.038Z,280
2017-07-29T03:36:56.066Z,296
2017-07-29T03:37:56.032Z,320
2017-07-29T03:38:56.034Z,336
2017-07-29T03:39:56.020Z,352
2017-07-29T03:40:56.028Z,376
2017-07-29T03:41:55.992Z,400
2017-07-29T03:42:56.271Z,432
2017-07-29T03:43:56.003Z,472
2017-07-29T03:44:55.984Z,520
2017-07-29T03:45:55.992Z,572
2017-07-29T03:46:56.005Z,632
2017-07-29T03:47:55.987Z,704
2017-07-29T03:48:55.977Z,784
2017-07-29T03:49:55.991Z,860
2017-07-29T03:50:55.975Z,932
2017-07-29T03:51:55.959Z,1028
2017-07-29T03:52:55.968Z,1148
2017-07-29T03:53:55.957Z,1284
2017-07-29T03:54:55.973Z,1404
2017-07-29T03:55:55.941Z,1540
2017-07-29T03:56:55.954Z,1676
2017-07-29T03:57:55.643Z,1808
2017-07-29T03:58:55.948Z,1912
2017-07-29T03:59:55.630Z,1956
2017-07-29T04:00:55.938Z,1984
2017-07-29T04:01:55.933Z,1992
2017-07-29T04:02:55.901Z,2004
2017-07-29T04:03:55.933Z,2040
2017-07-29T04:04:55.931Z,2096
2017-07-29T04:05:55.905Z,2180
2017-07-29T04:06:55.918Z,2292
2017-07-29T04:07:55.925Z,2436
2017-07-29T04:08:56.070Z,2636
2017-07-29T04:09:55.612Z,2884
2017-07-29T04:10:55.905Z,3120
2017-07-29T04:11:55.885Z,3264
2017-07-29T04:12:55.894Z,3252
2017-07-29T04:13:55.884Z,3204
2017-07-29T04:14:55.589Z,3156
2017-07-29T04:15:55.887Z,3060
2017-07-29T04:16:55.899Z,2900
2017-07-29T04:17:55.872Z,2788
2017-07-29T04:18:55.881Z,2820
2017-07-29T04:19:55.561Z,2944
2017-07-29T04:20:55.864Z,3076
2017-07-29T04:21:55.540Z,3116
2017-07-29T04:22:55.867Z,3104
2017-07-29T04:23:55.856Z,3124
2017-07-29T04:24:55.873Z,3132
2017-07-29T04:25:55.538Z,3156
2017-07-29T04:26:55.864Z,3204
2017-07-29T04:27:55.847Z,3352
2017-07-29T04:28:55.833Z,3464
2017-07-29T04:29:55.841Z,3216
2017-07-29T04:30:55.842Z,3036
2017-07-29T04:31:55.824Z,3140
2017-07-29T04:32:55.822Z,3376
2017-07-29T04:33:55.823Z,3620
2017-07-29T04:34:55.500Z,3900
2017-07-29T04:35:55.823Z,4364
2017-07-29T04:36:55.828Z,4816
2017-07-29T04:37:55.827Z,5036
2017-07-29T04:38:55.799Z,5224
2017-07-29T04:39:55.816Z,5320
2017-07-29T04:40:55.807Z,5336
2017-07-29T04:41:55.814Z,5380
2017-07-29T04:42:55.800Z,5504
2017-07-29T04:43:55.499Z,5628
2017-07-29T04:44:55.793Z,5692
2017-07-29T04:45:55.778Z,5748
2017-07-29T04:46:55.800Z,5760
2017-07-29T04:47:55.780Z,5772
2017-07-29T04:48:55.170Z,5744
2017-07-29T04:49:55.473Z,5620
2017-07-29T04:50:55.773Z,5436
2017-07-29T04:51:55.782Z,5440
2017-07-29T04:52:55.779Z,5680
2017-07-29T04:53:55.783Z,6196
2017-07-29T04:54:55.771Z,6860
2017-07-29T04:55:55.770Z,7796
2017-07-29T04:56:55.442Z,8636
2017-07-29T04:57:55.470Z,9384
2017-07-29T04:58:55.763Z,10376
2017-07-29T04:59:55.762Z,11224
2017-07-29T05:00:56.053Z,10964
2017-07-29T05:01:55.758Z,9444
2017-07-29T05:02:55.739Z,8188
2017-07-29T05:03:55.732Z,6040
2017-07-29T05:04:55.748Z,4732
2017-07-29T05:05:55.743Z,4728
2017-07-29T05:06:55.751Z,5296
2017-07-29T05:07:55.746Z,5584
2017-07-29T05:08:55.733Z,5796
2017-07-29T05:09:55.755Z,5988
2017-07-29T05:10:55.887Z,6304
2017-07-29T05:11:55.721Z,6648
2017-07-29T05:12:55.711Z,6932
2017-07-29T05:13:55.755Z,6784
2017-07-29T05:14:55.404Z,6620
2017-07-29T05:15:55.727Z,6584
2017-07-29T05:16:55.707Z,6736
2017-07-29T05:17:55.730Z,6968
2017-07-29T05:18:55.713Z,7088
2017-07-29T05:19:55.707Z,7088
2017-07-29T05:20:55.718Z,6568
2017-07-29T05:21:55.728Z,5868
2017-07-29T05:22:55.727Z,5276
2017-07-29T05:23:55.704Z,5060
2017-07-29T05:24:55.709Z,5116
2017-07-29T05:25:55.696Z,5196
2017-07-29T05:26:55.726Z,5208
2017-07-29T05:27:55.696Z,5128
2017-07-29T05:28:55.703Z,5132
2017-07-29T05:29:55.711Z,5204
2017-07-29T05:30:55.705Z,5328
2017-07-29T05:31:55.670Z,5456
2017-07-29T05:32:55.407Z,5572
2017-07-29T05:33:55.684Z,5676
2017-07-29T05:34:55.707Z,5820
2017-07-29T05:35:55.682Z,6028
2017-07-29T05:36:55.365Z,6240
2017-07-29T05:37:55.698Z,6412
2017-07-29T05:38:55.689Z,6552
2017-07-29T05:39:55.683Z,6620
2017-07-29T05:40:55.684Z,6588
2017-07-29T05:41:55.417Z,6500
2017-07-29T05:42:55.685Z,6484
2017-07-29T05:43:55.672Z,6644
2017-07-29T05:44:55.686Z,6916
2017-07-29T05:45:55.678Z,7332
2017-07-29T05:46:55.676Z,7816
2017-07-29T05:47:55.674Z,8596
2017-07-29T05:48:55.667Z,9488
2017-07-29T05:49:55.684Z,10352
2017-07-29T05:50:55.660Z,11464
2017-07-29T05:51:55.343Z,12748
2017-07-29T05:52:55.674Z,14304
2017-07-29T05:53:55.671Z,16128
2017-07-29T05:54:55.676Z,18464
2017-07-29T05:55:55.661Z,21760
2017-07-29T05:56:55.659Z,24352
2017-07-29T05:57:55.356Z,25856
2017-07-29T05:58:55.364Z,26016
2017-07-29T05:59:55.667Z,24608
2017-07-29T06:00:55.662Z,22944
2017-07-29T06:01:55.669Z,24544
2017-07-29T06:02:55.652Z,30912
2017-07-29T06:03:55.665Z,22656
2017-07-29T06:04:55.641Z,14836
2017-07-29T06:05:55.665Z,12996
2017-07-29T06:06:55.644Z,11776
2017-07-29T06:07:55.694Z,11216
2017-07-29T06:08:55.671Z,10656
2017-07-29T06:09:55.358Z,9664
2017-07-29T06:10:55.351Z,8648
2017-07-29T06:11:55.349Z,7408
2017-07-29T06:12:55.652Z,6300
2017-07-29T06:13:55.668Z,5540
2017-07-29T06:14:55.690Z,5364
2017-07-29T06:15:55.667Z,5492
2017-07-29T06:16:55.682Z,5472
2017-07-29T06:17:55.370Z,5368
2017-07-29T06:18:55.685Z,6236
2017-07-29T06:19:55.656Z,9388
2017-07-29T06:20:55.684Z,11856
2017-07-29T06:21:55.674Z,12468
2017-07-29T06:22:55.687Z,12824
2017-07-29T06:23:55.682Z,13920
2017-07-29T06:24:55.667Z,14180
2017-07-29T06:25:55.684Z,12616
2017-07-29T06:26:55.694Z,11604
2017-07-29T06:27:55.690Z,11308
2017-07-29T06:28:55.691Z,11140
2017-07-29T06:29:55.668Z,10792
2017-07-29T06:30:55.703Z,9388
2017-07-29T06:31:55.697Z,7660
2017-07-29T06:32:55.697Z,6872
2017-07-29T06:33:55.670Z,7060
2017-07-29T06:34:55.697Z,7228
2017-07-29T06:35:55.691Z,7236
2017-07-29T06:36:55.699Z,7412
2017-07-29T06:37:55.689Z,7164
2017-07-29T06:38:55.711Z,6816
2017-07-29T06:39:55.707Z,6528
2017-07-29T06:40:55.710Z,5468
2017-07-29T06:41:55.690Z,4792
2017-07-29T06:42:55.088Z,5108
2017-07-29T06:43:55.716Z,5900
2017-07-29T06:44:55.706Z,6848
2017-07-29T06:45:55.717Z,7720
2017-07-29T06:46:55.394Z,8384
2017-07-29T06:47:55.707Z,9064
2017-07-29T06:48:55.706Z,10684
2017-07-29T06:49:55.401Z,12696
2017-07-29T06:50:55.712Z,15056
2017-07-29T06:51:55.392Z,16448
2017-07-29T06:52:55.718Z,14776
2017-07-29T06:53:55.703Z,12344
2017-07-29T06:54:56.027Z,11376
2017-07-29T06:55:55.405Z,11872
2017-07-29T06:56:55.709Z,13356
2017-07-29T06:57:55.692Z,14688
2017-07-29T06:58:55.703Z,15080
2017-07-29T06:59:55.410Z,15936
2017-07-29T07:00:55.709Z,19808
2017-07-29T07:01:55.416Z,25088
2017-07-29T07:02:55.704Z,27328
2017-07-29T07:03:55.717Z,27648
2017-07-29T07:04:55.389Z,23392
2017-07-29T07:05:55.721Z,23040
2017-07-29T07:06:55.391Z,23072
2017-07-29T07:07:55.442Z,25408
2017-07-29T07:08:55.700Z,26240
2017-07-29T07:09:55.728Z,25248
2017-07-29T07:10:55.721Z,24832
2017-07-29T07:11:55.724Z,19008
2017-07-29T07:12:55.419Z,15472
2017-07-29T07:13:55.440Z,14264
2017-07-29T07:14:55.743Z,14784
2017-07-29T07:15:55.738Z,15992
2017-07-29T07:16:55.733Z,16576
2017-07-29T07:17:55.744Z,15356
2017-07-29T07:18:55.742Z,13140
2017-07-29T07:19:55.737Z,11664
2017-07-29T07:20:55.735Z,10528
2017-07-29T07:21:55.767Z,9924
2017-07-29T07:22:55.749Z,9824
2017-07-29T07:23:55.764Z,10104
2017-07-29T07:24:55.761Z,10536
2017-07-29T07:25:55.763Z,11152
2017-07-29T07:26:55.755Z,10876
2017-07-29T07:27:55.768Z,9604
2017-07-29T07:28:55.754Z,8364
2017-07-29T07:29:55.780Z,7640
2017-07-29T07:30:55.768Z,7264
2017-07-29T07:31:55.775Z,7228
2017-07-29T07:32:55.766Z,7236
2017-07-29T07:33:55.787Z,6868
2017-07-29T07:34:55.764Z,6404
2017-07-29T07:35:55.778Z,6756
2017-07-29T07:36:55.495Z,8260
2017-07-29T07:37:55.811Z,10424
2017-07-29T07:38:55.480Z,12268
2017-07-29T07:39:55.792Z,13900
2017-07-29T07:40:56.028Z,14608
2017-07-29T07:41:55.802Z,13432
2017-07-29T07:42:55.481Z,11992
2017-07-29T07:43:55.810Z,11920
2017-07-29T07:44:55.815Z,12540
2017-07-29T07:45:55.796Z,13012
2017-07-29T07:46:55.803Z,13932
2017-07-29T07:47:55.819Z,14144
2017-07-29T07:48:55.809Z,13380
2017-07-29T07:49:55.510Z,12936
2017-07-29T07:50:55.814Z,12740
2017-07-29T07:51:55.816Z,12096
2017-07-29T07:52:55.814Z,11708
2017-07-29T07:53:55.823Z,11604
2017-07-29T07:54:55.514Z,11332
2017-07-29T07:55:55.827Z,10532
2017-07-29T07:56:55.524Z,8852
2017-07-29T07:57:55.525Z,7360
2017-07-29T07:58:55.509Z,7936
2017-07-29T07:59:55.839Z,10112
2017-07-29T08:00:55.826Z,12608
2017-07-29T08:01:55.853Z,14284
2017-07-29T08:02:55.849Z,15368
2017-07-29T08:03:55.838Z,16352
2017-07-29T08:04:55.828Z,17280
2017-07-29T08:05:55.529Z,18432
2017-07-29T08:06:55.846Z,18976
2017-07-29T08:07:55.836Z,18080
2017-07-29T08:08:55.532Z,18880
2017-07-29T08:09:55.848Z,19648
2017-07-29T08:10:55.844Z,19360
2017-07-29T08:11:55.855Z,20032
2017-07-29T08:12:55.849Z,22464
2017-07-29T08:13:55.862Z,25600
2017-07-29T08:14:55.847Z,28384
2017-07-29T08:15:55.850Z,31104
2017-07-29T08:16:55.864Z,33440
2017-07-29T08:17:55.573Z,36800
2017-07-29T08:18:55.885Z,39488
2017-07-29T08:19:55.557Z,37888
2017-07-29T08:20:55.868Z,44608
2017-07-29T08:21:55.860Z,55776
2017-07-29T08:22:55.886Z,56416
2017-07-29T08:23:55.580Z,62432
2017-07-29T08:24:55.904Z,77024
2017-07-29T08:25:55.861Z,52608
2017-07-29T08:26:55.923Z,74272
2017-07-29T08:27:55.902Z,84704
2017-07-29T08:28:55.919Z,76672
2017-07-29T08:29:55.903Z,64480
2017-07-29T08:30:55.631Z,57120
2017-07-29T08:31:55.932Z,56128
2017-07-29T08:32:55.945Z,60704
2017-07-29T08:33:55.923Z,72864
2017-07-29T08:34:55.977Z,91584
2017-07-29T08:35:55.953Z,102624
2017-07-29T08:36:55.974Z,59296
2017-07-29T08:37:55.670Z,39424
2017-07-29T08:38:56.008Z,60576
2017-07-29T08:39:55.996Z,65664
2017-07-29T08:40:56.023Z,61312
2017-07-29T08:41:56.006Z,72928
2017-07-29T08:42:56.046Z,74720
2017-07-29T08:43:56.045Z,71840
2017-07-29T08:44:55.754Z,75360
2017-07-29T08:45:56.067Z,77344
2017-07-29T08:46:56.090Z,80160
2017-07-29T08:47:56.122Z,79936
2017-07-29T08:48:56.106Z,79648
2017-07-29T08:49:55.793Z,79328
2017-07-29T08:50:56.133Z,79168
2017-07-29T08:51:56.145Z,79360
2017-07-29T08:52:55.867Z,64896
2017-07-29T08:53:56.172Z,28992
2017-07-29T08:54:55.885Z,9852
2017-07-29T08:55:55.880Z,9444
2017-07-29T08:56:56.203Z,9256
2017-07-29T08:57:55.921Z,9200
2017-07-29T08:58:55.916Z,9160
2017-07-29T08:59:56.243Z,9056
2017-07-29T09:00:56.253Z,8892
2017-07-29T09:01:56.249Z,8784
2017-07-29T09:02:56.271Z,8708
2017-07-29T09:03:56.270Z,8616
2017-07-29T09:04:56.288Z,8544
2017-07-29T09:05:56.299Z,8468
2017-07-29T09:06:56.284Z,8348
2017-07-29T09:07:56.328Z,8304
2017-07-29T09:08:56.319Z,8272
2017-07-29T09:09:56.342Z,8288
2017-07-29T09:10:56.323Z,8396
2017-07-29T09:11:56.337Z,8516
2017-07-29T09:12:56.358Z,8364
2017-07-29T09:13:56.371Z,8540
2017-07-29T09:14:56.358Z,9348
2017-07-29T09:15:56.375Z,8612
2017-07-29T09:16:56.376Z,8308
2017-07-29T09:17:56.084Z,8196
2017-07-29T09:18:56.071Z,8208
2017-07-29T09:19:56.385Z,8168
2017-07-29T09:20:56.388Z,8204
2017-07-29T09:21:56.417Z,8356
2017-07-29T09:22:56.419Z,8384
2017-07-29T09:23:56.408Z,8400
2017-07-29T09:24:56.429Z,8416
2017-07-29T09:25:56.433Z,8412
2017-07-29T09:26:56.424Z,8468
2017-07-29T09:27:56.441Z,9092
2017-07-29T09:28:56.438Z,9992
2017-07-29T09:29:56.452Z,11836
2017-07-29T09:30:56.448Z,12828
2017-07-29T09:31:56.476Z,12520
2017-07-29T09:32:56.459Z,14612
2017-07-29T09:33:56.470Z,16328
2017-07-29T09:34:56.476Z,13136
2017-07-29T09:35:56.475Z,13324
2017-07-29T09:36:56.470Z,12608
2017-07-29T09:37:56.490Z,14536
2017-07-29T09:38:56.512Z,17600
2017-07-29T09:39:56.499Z,19744
2017-07-29T09:40:56.166Z,20768
2017-07-29T09:41:56.487Z,21280
2017-07-29T09:42:56.198Z,23296
2017-07-29T09:43:56.502Z,23488
2017-07-29T09:44:56.530Z,22144
2017-07-29T09:45:56.494Z,22304
2017-07-29T09:46:56.524Z,22496
2017-07-29T09:47:56.526Z,19808
2017-07-29T09:48:56.521Z,20416
2017-07-29T09:49:56.515Z,22912
2017-07-29T09:50:56.542Z,23776
2017-07-29T09:51:56.237Z,23136
2017-07-29T09:52:56.549Z,26624
2017-07-29T09:53:56.571Z,28128
2017-07-29T09:54:56.563Z,27264
2017-07-29T09:55:56.562Z,25216
2017-07-29T09:56:56.567Z,22560
2017-07-29T09:57:56.558Z,20832
2017-07-29T09:58:56.288Z,22624
2017-07-29T09:59:56.585Z,22432
2017-07-29T10:00:56.609Z,22496
2017-07-29T10:01:56.592Z,25792
2017-07-29T10:02:56.620Z,27552
2017-07-29T10:03:56.293Z,25024
2017-07-29T10:04:56.630Z,22432
2017-07-29T10:05:56.604Z,20256
2017-07-29T10:06:56.333Z,20448
2017-07-29T10:07:56.340Z,22080
2017-07-29T10:08:56.660Z,23040
2017-07-29T10:09:56.654Z,25088
2017-07-29T10:10:56.641Z,20160
2017-07-29T10:11:56.699Z,16836
2017-07-29T10:12:56.686Z,16364
2017-07-29T10:13:56.677Z,15260
2017-07-29T10:14:56.357Z,18432
2017-07-29T10:15:56.692Z,21408
2017-07-29T10:16:56.713Z,20128
2017-07-29T10:17:56.700Z,19360
2017-07-29T10:18:56.728Z,15784
2017-07-29T10:19:56.710Z,14236
2017-07-29T10:20:56.738Z,14904
2017-07-29T10:21:56.742Z,15456
2017-07-29T10:22:56.431Z,15284
2017-07-29T10:23:56.435Z,15164
2017-07-29T10:24:56.444Z,15048
2017-07-29T10:25:56.145Z,16884
2017-07-29T10:26:56.447Z,19520
2017-07-29T10:27:56.776Z,20896
2017-07-29T10:28:56.482Z,19008
2017-07-29T10:29:56.480Z,17248
2017-07-29T10:30:56.469Z,18432
2017-07-29T10:31:56.492Z,16312
2017-07-29T10:32:56.500Z,13380
2017-07-29T10:33:56.825Z,11828
2017-07-29T10:34:56.508Z,11572
2017-07-29T10:35:56.512Z,13016
2017-07-29T10:36:56.514Z,15508
2017-07-29T10:37:56.853Z,19008
2017-07-29T10:38:56.207Z,18432
2017-07-29T10:39:56.539Z,17536
2017-07-29T10:40:56.546Z,16376
2017-07-29T10:41:56.866Z,14220
2017-07-29T10:42:56.550Z,13792
2017-07-29T10:43:56.580Z,14356
2017-07-29T10:44:56.577Z,14180
2017-07-29T10:45:56.905Z,16136
2017-07-29T10:46:56.876Z,18144
2017-07-29T10:47:56.909Z,22336
2017-07-29T10:48:56.896Z,21216
2017-07-29T10:49:56.623Z,15176
2017-07-29T10:50:56.921Z,12524
2017-07-29T10:51:56.935Z,13428
2017-07-29T10:52:56.946Z,12804
2017-07-29T10:53:56.946Z,10896
2017-07-29T10:54:56.944Z,10960
2017-07-29T10:55:56.971Z,11072
2017-07-29T10:56:56.962Z,9400
2017-07-29T10:57:56.661Z,7800
2017-07-29T10:58:56.665Z,8112
2017-07-29T10:59:56.984Z,9852
2017-07-29T11:00:57.010Z,11076
2017-07-29T11:01:57.003Z,9640
2017-07-29T11:02:56.992Z,8176
2017-07-29T11:03:57.001Z,7504
2017-07-29T11:04:57.006Z,7156
2017-07-29T11:05:57.039Z,7164
2017-07-29T11:06:57.013Z,7412
2017-07-29T11:07:57.015Z,7664
2017-07-29T11:08:56.723Z,7680
2017-07-29T11:09:56.721Z,7852
2017-07-29T11:10:56.749Z,7860
2017-07-29T11:11:57.050Z,7796
2017-07-29T11:12:56.753Z,7788
2017-07-29T11:13:57.039Z,8348
2017-07-29T11:14:57.043Z,9764
2017-07-29T11:15:57.059Z,10720
2017-07-29T11:16:56.779Z,11600
2017-07-29T11:17:57.306Z,11532
2017-07-29T11:18:57.093Z,11888
2017-07-29T11:19:57.079Z,12992
2017-07-29T11:20:57.106Z,13908
2017-07-29T11:21:56.804Z,14340
2017-07-29T11:22:57.109Z,17024
2017-07-29T11:23:57.120Z,19296
2017-07-29T11:24:57.106Z,18432
2017-07-29T11:25:56.827Z,15980
2017-07-29T11:26:57.127Z,15408
2017-07-29T11:27:57.165Z,15064
2017-07-29T11:28:57.155Z,14392
2017-07-29T11:29:57.154Z,14208
2017-07-29T11:30:57.159Z,15496
2017-07-29T11:31:57.152Z,18272
2017-07-29T11:32:57.164Z,20576
2017-07-29T11:33:57.176Z,18752
2017-07-29T11:34:57.167Z,20832
2017-07-29T11:35:57.169Z,25600
2017-07-29T11:36:57.180Z,28128
2017-07-29T11:37:57.193Z,27296
2017-07-29T11:38:57.185Z,24288
2017-07-29T11:39:57.214Z,22848
2017-07-29T11:40:57.201Z,23008
2017-07-29T11:41:57.229Z,24512
2017-07-29T11:42:57.203Z,27808
2017-07-29T11:43:56.941Z,28320
2017-07-29T11:44:57.259Z,25312
2017-07-29T11:45:57.242Z,21984
2017-07-29T11:46:57.259Z,18624
2017-07-29T11:47:57.257Z,17056
2017-07-29T11:48:57.260Z,16864
2017-07-29T11:49:57.260Z,16064
2017-07-29T11:50:57.291Z,15440
2017-07-29T11:51:57.293Z,14740
2017-07-29T11:52:57.313Z,13104
2017-07-29T11:53:56.971Z,13016
2017-07-29T11:54:57.300Z,12744
2017-07-29T11:55:57.292Z,13868
2017-07-29T11:56:57.014Z,15772
2017-07-29T11:57:57.003Z,18976
2017-07-29T11:58:57.324Z,21280
2017-07-29T11:59:57.346Z,22432
2017-07-29T12:00:57.275Z,22688
2017-07-29T12:01:57.352Z,23040
2017-07-29T12:02:57.371Z,23648
2017-07-29T12:03:57.368Z,22176
2017-07-29T12:04:57.080Z,21312
2017-07-29T12:05:57.363Z,21152
2017-07-29T12:06:57.087Z,20448
2017-07-29T12:07:57.095Z,19776
2017-07-29T12:08:57.391Z,19680
2017-07-29T12:09:57.392Z,20352
2017-07-29T12:10:57.414Z,21536
2017-07-29T12:11:57.405Z,20640
2017-07-29T12:12:57.433Z,17888
2017-07-29T12:13:57.429Z,17472
2017-07-29T12:14:57.446Z,16200
2017-07-29T12:15:57.454Z,15944
2017-07-29T12:16:57.461Z,15916
2017-07-29T12:17:57.455Z,16384
2017-07-29T12:18:57.460Z,14724
2017-07-29T12:19:57.490Z,11780
2017-07-29T12:20:57.501Z,9860
2017-07-29T12:21:57.507Z,9084
2017-07-29T12:22:57.491Z,9048
2017-07-29T12:23:57.513Z,9648
2017-07-29T12:24:57.516Z,11112
2017-07-29T12:25:57.528Z,13340
2017-07-29T12:26:57.530Z,18304
2017-07-29T12:27:57.537Z,21504
2017-07-29T12:28:57.549Z,21600
2017-07-29T12:29:57.530Z,19488
2017-07-29T12:30:57.569Z,18624
2017-07-29T12:31:57.264Z,17984
2017-07-29T12:32:56.963Z,15452
2017-07-29T12:33:57.267Z,13276
2017-07-29T12:34:57.278Z,13108
2017-07-29T12:35:57.276Z,13012
2017-07-29T12:36:57.606Z,13348
2017-07-29T12:37:57.285Z,14916
2017-07-29T12:38:57.021Z,17248
2017-07-29T12:39:57.326Z,16736
2017-07-29T12:40:57.335Z,18080
2017-07-29T12:41:57.325Z,18240
2017-07-29T12:42:57.746Z,17920
2017-07-29T12:43:57.329Z,17472
2017-07-29T12:44:57.652Z,16864
2017-07-29T12:45:57.661Z,16208
2017-07-29T12:46:57.670Z,14912
2017-07-29T12:47:57.972Z,12820
2017-07-29T12:48:57.375Z,11808
2017-07-29T12:49:57.380Z,12184
2017-07-29T12:50:57.707Z,10912
2017-07-29T12:51:57.387Z,9620
2017-07-29T12:52:57.698Z,8848
2017-07-29T12:53:57.700Z,8356
2017-07-29T12:54:57.411Z,8092
2017-07-29T12:55:57.719Z,7956
2017-07-29T12:56:57.437Z,8896
2017-07-29T12:57:57.660Z,9164
2017-07-29T12:58:57.447Z,8900
2017-07-29T12:59:57.422Z,8780
2017-07-29T13:00:57.754Z,8792
2017-07-29T13:01:57.444Z,8964
2017-07-29T13:02:57.466Z,8388
2017-07-29T13:03:57.459Z,7744
2017-07-29T13:04:57.481Z,7096
2017-07-29T13:05:57.809Z,7496
2017-07-29T13:06:57.798Z,8932
2017-07-29T13:07:57.487Z,11604
2017-07-29T13:08:57.805Z,15432
2017-07-29T13:09:57.516Z,16672
2017-07-29T13:10:57.510Z,17536
2017-07-29T13:11:57.525Z,18528
2017-07-29T13:12:57.799Z,18368
2017-07-29T13:13:57.942Z,17728
2017-07-29T13:14:57.524Z,17824
2017-07-29T13:15:57.841Z,16992
2017-07-29T13:16:57.544Z,16768
2017-07-29T13:17:57.230Z,16576
2017-07-29T13:18:57.566Z,16032
2017-07-29T13:19:57.880Z,16352
2017-07-29T13:20:57.557Z,16928
2017-07-29T13:21:57.863Z,17280
2017-07-29T13:22:57.869Z,18016
2017-07-29T13:23:57.902Z,20576
2017-07-29T13:24:57.902Z,21952
2017-07-29T13:25:57.916Z,21792
2017-07-29T13:26:57.897Z,21120